Darstellungsparameter: Aktuell verwendete Einstellungen:
Skalierung der Graphiken ... ?
xyx+y,   Skalierungsfaktor:      Skalierung: Modus: x, Faktor: 1
Darstellungszeitraum ... ?
Vom - - bis: - -   Zeitraum: 17.10.2019 - 17.10.2019
Min/Max/Avg-Anzeige ... ?
Zeige MMA aktuell
Zeige MMA Monat
Zeige MMA alles
Zeige --A aktuell
Zeige --A Monat
Zeige --A alles
Keine MMA-Anzeige
MMA:
Keine MMA-Graphiken
MMA-Basis: 17.10.2019 - 17.10.2019
Quicknavigation für Darstellung... ?
Tage:      1T, 2T, 3T, 5T -1T -2T -3T -5T +1T +2T +3T +5T
Wochen: 1W, 2W, 3W -1W -2W -3W +1W +2W +3W
Monate: 1M, 3M, 6M -1M -3M -6M +1M +3M +6M
Jahre:    1J, 3J, 5J, 10J -1J -3J -5J -10J +1J +3J +5J +10J
Nutze für die Darstellung ... ?
Originaldaten oder Mittelwerte auf ...
Stundenbasis Tagesbasis Wochenbasis
Monatsbasis Jahresbasis      Datenbasis: Original-Daten
Darstellen als:
Statistik (Auto) Statistik J:M      Darstellung:
Zur Graphik,    zurück zur Übersicht aller Sensoren.
 
Tabellarische Datenbersicht: ?
 
Sensor: Nr:Datum:Temp:Feuchte:Taupunkt:
Aussen-T/F 1 17-10-2019 00:00:00 12.5 C 96 % 11.88 C
2 17-10-2019 00:05:00 12.5 C 96 % 11.88 C
3 17-10-2019 00:10:00 12.6 C 96 % 11.98 C
4 17-10-2019 00:15:00 12.6 C 96 % 11.98 C
5 17-10-2019 00:20:00 12.6 C 96 % 11.98 C
6 17-10-2019 00:25:00 12.7 C 96 % 12.08 C
7 17-10-2019 00:30:00 12.7 C 96 % 12.08 C
8 17-10-2019 00:35:00 12.7 C 96 % 12.08 C
9 17-10-2019 00:40:00 12.7 C 96 % 12.08 C
10 17-10-2019 00:45:00 12.7 C 96 % 12.08 C
11 17-10-2019 00:50:00 12.7 C 96 % 12.08 C
12 17-10-2019 00:55:00 12.7 C 96 % 12.08 C
13 17-10-2019 01:00:00 12.7 C 96 % 12.08 C
14 17-10-2019 01:05:00 12.7 C 96 % 12.08 C
15 17-10-2019 01:10:00 12.7 C 96 % 12.08 C
16 17-10-2019 01:15:00 12.7 C 96 % 12.08 C
17 17-10-2019 01:20:00 12.7 C 96 % 12.08 C
18 17-10-2019 01:25:00 12.7 C 96 % 12.08 C
19 17-10-2019 01:30:00 12.7 C 96 % 12.08 C
20 17-10-2019 01:35:00 12.7 C 96 % 12.08 C
21 17-10-2019 01:40:00 12.6 C 96 % 11.98 C
22 17-10-2019 01:45:00 12.5 C 96 % 11.88 C
23 17-10-2019 01:50:00 12.4 C 96 % 11.78 C
24 17-10-2019 01:55:00 12.3 C 96 % 11.68 C
25 17-10-2019 02:00:00 12.2 C 96 % 11.58 C
Sensor: Nr:Datum:Temp:Feuchte:Taupunkt:
Aussen-T/F 26 17-10-2019 02:05:00 12.2 C 96 % 11.58 C
27 17-10-2019 02:10:00 12.2 C 96 % 11.58 C
28 17-10-2019 02:15:00 12.3 C 96 % 11.68 C
29 17-10-2019 02:20:00 12.3 C 96 % 11.68 C
30 17-10-2019 02:25:00 12.3 C 96 % 11.68 C
31 17-10-2019 02:30:00 12.3 C 96 % 11.68 C
32 17-10-2019 02:35:00 12.4 C 96 % 11.78 C
33 17-10-2019 02:40:00 12.5 C 96 % 11.88 C
34 17-10-2019 02:45:00 12.6 C 96 % 11.98 C
35 17-10-2019 02:50:00 12.6 C 96 % 11.98 C
36 17-10-2019 02:55:00 12.6 C 96 % 11.98 C
37 17-10-2019 03:00:00 12.7 C 96 % 12.08 C
38 17-10-2019 03:05:00 12.7 C 96 % 12.08 C
39 17-10-2019 03:10:00 12.7 C 96 % 12.08 C
40 17-10-2019 03:15:00 12.7 C 96 % 12.08 C
41 17-10-2019 03:20:00 12.7 C 96 % 12.08 C
42 17-10-2019 03:25:00 12.7 C 96 % 12.08 C
43 17-10-2019 03:30:00 12.7 C 96 % 12.08 C
44 17-10-2019 03:35:00 12.7 C 95 % 11.92 C
45 17-10-2019 03:40:00 12.7 C 95 % 11.92 C
46 17-10-2019 03:45:00 12.9 C 95 % 12.12 C
47 17-10-2019 03:50:00 12.9 C 95 % 12.12 C
48 17-10-2019 03:55:00 13.1 C 94 % 12.16 C
49 17-10-2019 04:00:00 13.1 C 94 % 12.16 C
50 17-10-2019 04:05:00 13.3 C 93 % 12.19 C
Sensor: Nr:Datum:Temp:Feuchte:Taupunkt:
Aussen-T/F 51 17-10-2019 04:10:00 13.4 C 93 % 12.29 C
52 17-10-2019 04:15:00 13.5 C 93 % 12.39 C
53 17-10-2019 04:20:00 13.6 C 93 % 12.49 C
54 17-10-2019 04:25:00 13.5 C 93 % 12.39 C
55 17-10-2019 04:30:00 13.6 C 92 % 12.33 C
56 17-10-2019 04:35:00 13.7 C 92 % 12.42 C
57 17-10-2019 04:40:00 13.7 C 92 % 12.42 C
58 17-10-2019 04:45:00 13.8 C 92 % 12.52 C
59 17-10-2019 04:50:00 13.8 C 92 % 12.52 C
60 17-10-2019 04:55:00 13.9 C 90 % 12.29 C
61 17-10-2019 05:00:00 14 C 91 % 12.56 C
62 17-10-2019 05:05:00 14 C 91 % 12.56 C
63 17-10-2019 05:10:00 14 C 90 % 12.39 C
64 17-10-2019 05:15:00 14.1 C 90 % 12.49 C
65 17-10-2019 05:20:00 14.1 C 90 % 12.49 C
66 17-10-2019 05:25:00 14.2 C 89 % 12.41 C
67 17-10-2019 05:30:00 14.3 C 89 % 12.51 C
68 17-10-2019 05:35:00 14.3 C 89 % 12.51 C
69 17-10-2019 05:40:00 14.3 C 88 % 12.34 C
70 17-10-2019 05:45:00 14.3 C 89 % 12.51 C
71 17-10-2019 05:50:00 14.3 C 88 % 12.34 C
72 17-10-2019 05:55:00 14.4 C 88 % 12.44 C
73 17-10-2019 06:00:00 14.4 C 89 % 12.61 C
74 17-10-2019 06:05:00 14.3 C 88 % 12.34 C
75 17-10-2019 06:10:00 14.3 C 89 % 12.51 C
Sensor: Nr:Datum:Temp:Feuchte:Taupunkt:
Aussen-T/F 76 17-10-2019 06:15:00 14.2 C 89 % 12.41 C
77 17-10-2019 06:20:00 14.2 C 89 % 12.41 C
78 17-10-2019 06:25:00 14.2 C 89 % 12.41 C
79 17-10-2019 06:30:00 14.2 C 89 % 12.41 C
80 17-10-2019 06:35:00 14.2 C 89 % 12.41 C
81 17-10-2019 06:40:00 14.2 C 89 % 12.41 C
82 17-10-2019 06:45:00 14.2 C 89 % 12.41 C
83 17-10-2019 06:50:00 14.2 C 89 % 12.41 C
84 17-10-2019 06:55:00 14.2 C 89 % 12.41 C
85 17-10-2019 07:00:00 14.2 C 89 % 12.41 C
86 17-10-2019 07:05:00 14.2 C 89 % 12.41 C
87 17-10-2019 07:10:00 14.2 C 89 % 12.41 C
88 17-10-2019 07:15:00 14.2 C 89 % 12.41 C
89 17-10-2019 07:20:00 14.3 C 90 % 12.68 C
90 17-10-2019 07:25:00 14.3 C 90 % 12.68 C
91 17-10-2019 07:30:00 14.3 C 90 % 12.68 C
92 17-10-2019 07:35:00 14.2 C 90 % 12.58 C
93 17-10-2019 07:40:00 14.2 C 90 % 12.58 C
94 17-10-2019 07:45:00 14.2 C 90 % 12.58 C
95 17-10-2019 07:50:00 14.3 C 90 % 12.68 C
96 17-10-2019 07:55:00 14.3 C 89 % 12.51 C
97 17-10-2019 08:00:00 14.2 C 89 % 12.41 C
98 17-10-2019 08:05:00 14.2 C 89 % 12.41 C
99 17-10-2019 08:10:00 14.2 C 89 % 12.41 C
100 17-10-2019 08:15:00 14.2 C 90 % 12.58 C
Sensor: Nr:Datum:Temp:Feuchte:Taupunkt:
Aussen-T/F 101 17-10-2019 08:20:00 14.2 C 90 % 12.58 C
102 17-10-2019 08:25:00 14.2 C 90 % 12.58 C
103 17-10-2019 08:30:00 14.5 C 88 % 12.54 C
104 17-10-2019 08:35:00 14.8 C 86 % 12.48 C
105 17-10-2019 08:40:00 15 C 86 % 12.68 C
106 17-10-2019 08:45:00 15.1 C 85 % 12.6 C
107 17-10-2019 08:50:00 15.2 C 85 % 12.7 C
108 17-10-2019 08:55:00 15.2 C 85 % 12.7 C
109 17-10-2019 09:00:00 15.3 C 85 % 12.79 C
110 17-10-2019 09:05:00 15.3 C 85 % 12.79 C
111 17-10-2019 09:10:00 15.3 C 85 % 12.79 C
112 17-10-2019 09:15:00 15.3 C 85 % 12.79 C
113 17-10-2019 09:20:00 15.3 C 85 % 12.79 C
114 17-10-2019 09:25:00 15.3 C 84 % 12.61 C
115 17-10-2019 09:30:00 15.4 C 85 % 12.89 C
116 17-10-2019 09:35:00 15.4 C 85 % 12.89 C
117 17-10-2019 09:40:00 15.4 C 85 % 12.89 C
118 17-10-2019 09:45:00 15.4 C 84 % 12.71 C
119 17-10-2019 09:50:00 15.5 C 85 % 12.99 C
120 17-10-2019 09:55:00 15.5 C 85 % 12.99 C
121 17-10-2019 10:00:00 15.4 C 84 % 12.71 C
122 17-10-2019 10:05:00 15.5 C 84 % 12.81 C
123 17-10-2019 10:10:00 15.6 C 84 % 12.91 C
124 17-10-2019 10:15:00 15.6 C 85 % 13.09 C
125 17-10-2019 10:20:00 15.7 C 84 % 13.01 C
Sensor: Nr:Datum:Temp:Feuchte:Taupunkt:
Aussen-T/F 126 17-10-2019 10:25:00 15.8 C 84 % 13.1 C
127 17-10-2019 10:30:00 15.9 C 83 % 13.02 C
128 17-10-2019 10:35:00 16.1 C 82 % 13.03 C
129 17-10-2019 10:40:00 16.1 C 82 % 13.03 C
130 17-10-2019 10:45:00 16.2 C 82 % 13.13 C
131 17-10-2019 10:50:00 16.2 C 82 % 13.13 C
132 17-10-2019 10:55:00 16.3 C 82 % 13.22 C
133 17-10-2019 11:00:00 16.3 C 82 % 13.22 C
134 17-10-2019 11:05:00 16.4 C 82 % 13.32 C
135 17-10-2019 11:10:00 16.5 C 82 % 13.42 C
136 17-10-2019 11:15:00 16.6 C 81 % 13.33 C
137 17-10-2019 11:20:00 16.6 C 82 % 13.52 C
138 17-10-2019 11:25:00 16.7 C 81 % 13.43 C
139 17-10-2019 11:30:00 16.7 C 82 % 13.61 C
140 17-10-2019 11:35:00 16.8 C 83 % 13.9 C
141 17-10-2019 11:40:00 16.8 C 83 % 13.9 C
142 17-10-2019 11:45:00 16.9 C 83 % 14 C
143 17-10-2019 11:50:00 16.8 C 81 % 13.52 C
144 17-10-2019 11:55:00 16.8 C 81 % 13.52 C
145 17-10-2019 12:00:00 16.7 C 83 % 13.8 C
146 17-10-2019 12:05:00 16.7 C 82 % 13.61 C
147 17-10-2019 12:10:00 16.7 C 84 % 13.98 C
148 17-10-2019 12:15:00 16.7 C 85 % 14.17 C
149 17-10-2019 12:20:00 16.7 C 86 % 14.35 C
150 17-10-2019 12:25:00 16.7 C 86 % 14.35 C
Sensor: Nr:Datum:Temp:Feuchte:Taupunkt:
Aussen-T/F 151 17-10-2019 12:30:00 16.6 C 83 % 13.7 C
152 17-10-2019 12:35:00 16.6 C 84 % 13.89 C
153 17-10-2019 12:40:00 16.6 C 84 % 13.89 C
154 17-10-2019 12:45:00 16.6 C 85 % 14.07 C
155 17-10-2019 12:50:00 16.6 C 83 % 13.7 C
156 17-10-2019 12:55:00 16.7 C 84 % 13.98 C
157 17-10-2019 13:00:00 16.8 C 82 % 13.71 C
158 17-10-2019 13:05:00 16.9 C 83 % 14 C
159 17-10-2019 13:10:00 16.9 C 82 % 13.81 C
160 17-10-2019 13:15:00 16.8 C 82 % 13.71 C
161 17-10-2019 13:20:00 16.7 C 83 % 13.8 C
162 17-10-2019 13:25:00 16.7 C 84 % 13.98 C
163 17-10-2019 13:30:00 16.7 C 83 % 13.8 C
164 17-10-2019 13:35:00 16.8 C 84 % 14.08 C
165 17-10-2019 13:40:00 16.8 C 83 % 13.9 C
166 17-10-2019 13:45:00 16.9 C 84 % 14.18 C
167 17-10-2019 13:50:00 16.9 C 83 % 14 C
168 17-10-2019 13:55:00 16.9 C 83 % 14 C
169 17-10-2019 14:00:00 16.9 C 84 % 14.18 C
170 17-10-2019 14:05:00 16.9 C 83 % 14 C
171 17-10-2019 14:10:00 16.9 C 84 % 14.18 C
172 17-10-2019 14:15:00 16.9 C 85 % 14.36 C
173 17-10-2019 14:20:00 16.9 C 85 % 14.36 C
174 17-10-2019 14:25:00 16.9 C 86 % 14.54 C
175 17-10-2019 14:30:00 16.9 C 86 % 14.54 C
Sensor: Nr:Datum:Temp:Feuchte:Taupunkt:
Aussen-T/F 176 17-10-2019 14:35:00 16.8 C 87 % 14.62 C
177 17-10-2019 14:40:00 16.8 C 87 % 14.62 C
178 17-10-2019 14:45:00 16.8 C 88 % 14.8 C
179 17-10-2019 14:50:00 16.7 C 87 % 14.53 C
180 17-10-2019 14:55:00 16.7 C 87 % 14.53 C
181 17-10-2019 15:00:00 16.7 C 87 % 14.53 C
182 17-10-2019 15:05:00 16.7 C 86 % 14.35 C
183 17-10-2019 15:10:00 16.7 C 87 % 14.53 C
184 17-10-2019 15:15:00 16.7 C 87 % 14.53 C
185 17-10-2019 15:20:00 16.7 C 87 % 14.53 C
186 17-10-2019 15:25:00 16.7 C 87 % 14.53 C
187 17-10-2019 15:30:00 16.7 C 87 % 14.53 C
188 17-10-2019 15:35:00 16.7 C 87 % 14.53 C
189 17-10-2019 15:40:00 16.6 C 86 % 14.25 C
190 17-10-2019 15:45:00 16.6 C 87 % 14.43 C
191 17-10-2019 15:50:00 16.4 C 88 % 14.41 C
192 17-10-2019 15:55:00 16.4 C 88 % 14.41 C
193 17-10-2019 16:00:00 16.3 C 89 % 14.48 C
194 17-10-2019 16:05:00 16.2 C 89 % 14.39 C
195 17-10-2019 16:10:00 16.1 C 90 % 14.46 C
196 17-10-2019 16:15:00 16 C 90 % 14.36 C
197 17-10-2019 16:20:00 15.9 C 91 % 14.43 C
198 17-10-2019 16:25:00 15.9 C 91 % 14.43 C
199 17-10-2019 16:30:00 15.8 C 92 % 14.5 C
200 17-10-2019 16:35:00 15.8 C 92 % 14.5 C
Sensor: Nr:Datum:Temp:Feuchte:Taupunkt:
Aussen-T/F 201 17-10-2019 16:40:00 15.7 C 92 % 14.4 C
202 17-10-2019 16:45:00 15.6 C 92 % 14.31 C
203 17-10-2019 16:50:00 15.5 C 93 % 14.37 C
204 17-10-2019 16:55:00 15.4 C 93 % 14.27 C
205 17-10-2019 17:00:00 15.4 C 93 % 14.27 C
206 17-10-2019 17:05:00 15.3 C 93 % 14.18 C
207 17-10-2019 17:10:00 15.3 C 93 % 14.18 C
208 17-10-2019 17:15:00 15.3 C 94 % 14.34 C
209 17-10-2019 17:20:00 15.2 C 94 % 14.24 C
210 17-10-2019 17:25:00 15.2 C 94 % 14.24 C
211 17-10-2019 17:30:00 15.1 C 94 % 14.14 C
212 17-10-2019 17:35:00 15.1 C 94 % 14.14 C
213 17-10-2019 17:40:00 15 C 94 % 14.04 C
214 17-10-2019 17:45:00 15 C 94 % 14.04 C
215 17-10-2019 17:50:00 14.9 C 95 % 14.11 C
216 17-10-2019 17:55:00 14.9 C 95 % 14.11 C
217 17-10-2019 18:00:00 14.9 C 95 % 14.11 C
218 17-10-2019 18:05:00 14.8 C 95 % 14.01 C
219 17-10-2019 18:10:00 14.8 C 95 % 14.01 C
220 17-10-2019 18:15:00 14.7 C 95 % 13.91 C
221 17-10-2019 18:20:00 14.7 C 95 % 13.91 C
222 17-10-2019 18:25:00 14.7 C 95 % 13.91 C
223 17-10-2019 18:30:00 14.6 C 95 % 13.81 C
224 17-10-2019 18:35:00 14.6 C 95 % 13.81 C
225 17-10-2019 18:40:00 14.5 C 95 % 13.71 C
Sensor: Nr:Datum:Temp:Feuchte:Taupunkt:
Aussen-T/F 226 17-10-2019 18:45:00 14.4 C 95 % 13.61 C
227 17-10-2019 18:50:00 14.4 C 95 % 13.61 C
228 17-10-2019 18:55:00 14.3 C 95 % 13.51 C
229 17-10-2019 19:00:00 14.3 C 95 % 13.51 C
230 17-10-2019 19:05:00 14.3 C 95 % 13.51 C
231 17-10-2019 19:10:00 14.2 C 95 % 13.41 C
232 17-10-2019 19:15:00 14.2 C 95 % 13.41 C
233 17-10-2019 19:20:00 14.2 C 96 % 13.57 C
234 17-10-2019 19:25:00 14.1 C 96 % 13.47 C
235 17-10-2019 19:30:00 14.1 C 96 % 13.47 C
236 17-10-2019 19:35:00 14.1 C 96 % 13.47 C
237 17-10-2019 19:40:00 14.1 C 96 % 13.47 C
238 17-10-2019 19:45:00 14.1 C 96 % 13.47 C
239 17-10-2019 19:50:00 14.1 C 96 % 13.47 C
240 17-10-2019 19:55:00 14.1 C 96 % 13.47 C
241 17-10-2019 20:00:00 14.1 C 96 % 13.47 C
242 17-10-2019 20:05:00 14.1 C 96 % 13.47 C
243 17-10-2019 20:10:00 14.1 C 96 % 13.47 C
244 17-10-2019 20:15:00 14.1 C 96 % 13.47 C
245 17-10-2019 20:20:00 14.1 C 96 % 13.47 C
246 17-10-2019 20:25:00 14.1 C 96 % 13.47 C
247 17-10-2019 20:30:00 14.1 C 96 % 13.47 C
248 17-10-2019 20:35:00 14.1 C 96 % 13.47 C
249 17-10-2019 20:40:00 14.1 C 96 % 13.47 C
250 17-10-2019 20:45:00 14.1 C 96 % 13.47 C
Sensor: Nr:Datum:Temp:Feuchte:Taupunkt:
Aussen-T/F 251 17-10-2019 20:50:00 14 C 96 % 13.37 C
252 17-10-2019 20:55:00 14 C 96 % 13.37 C
253 17-10-2019 21:00:00 13.9 C 96 % 13.27 C
254 17-10-2019 21:05:00 13.9 C 96 % 13.27 C
255 17-10-2019 21:10:00 13.9 C 97 % 13.43 C
256 17-10-2019 21:15:00 13.9 C 96 % 13.27 C
257 17-10-2019 21:20:00 13.9 C 97 % 13.43 C
258 17-10-2019 21:25:00 13.9 C 97 % 13.43 C
259 17-10-2019 21:30:00 13.9 C 97 % 13.43 C
260 17-10-2019 21:35:00 13.9 C 97 % 13.43 C
261 17-10-2019 21:40:00 13.9 C 97 % 13.43 C
262 17-10-2019 21:45:00 13.9 C 97 % 13.43 C
263 17-10-2019 21:50:00 13.9 C 97 % 13.43 C
264 17-10-2019 21:55:00 13.9 C 97 % 13.43 C
265 17-10-2019 22:00:00 13.9 C 97 % 13.43 C
266 17-10-2019 22:05:00 13.9 C 97 % 13.43 C
267 17-10-2019 22:10:00 13.9 C 97 % 13.43 C
268 17-10-2019 22:15:00 13.9 C 97 % 13.43 C
269 17-10-2019 22:20:00 13.9 C 97 % 13.43 C
270 17-10-2019 22:25:00 13.9 C 97 % 13.43 C
271 17-10-2019 22:30:00 13.8 C 97 % 13.33 C
272 17-10-2019 22:35:00 13.8 C 97 % 13.33 C
273 17-10-2019 22:40:00 13.8 C 97 % 13.33 C
274 17-10-2019 22:45:00 13.8 C 97 % 13.33 C
275 17-10-2019 22:50:00 13.8 C 97 % 13.33 C
Sensor: Nr:Datum:Temp:Feuchte:Taupunkt:
Aussen-T/F 276 17-10-2019 22:55:00 13.8 C 97 % 13.33 C
277 17-10-2019 23:00:00 13.8 C 97 % 13.33 C
278 17-10-2019 23:05:00 13.9 C 97 % 13.43 C
279 17-10-2019 23:10:00 13.9 C 97 % 13.43 C
280 17-10-2019 23:15:00 13.9 C 97 % 13.43 C
281 17-10-2019 23:20:00 13.9 C 97 % 13.43 C
282 17-10-2019 23:25:00 13.9 C 97 % 13.43 C
283 17-10-2019 23:30:00 13.9 C 97 % 13.43 C
284 17-10-2019 23:35:00 13.9 C 97 % 13.43 C
285 17-10-2019 23:40:00 13.9 C 97 % 13.43 C
286 17-10-2019 23:45:00 13.9 C 97 % 13.43 C
287 17-10-2019 23:50:00 13.9 C 97 % 13.43 C
288 17-10-2019 23:55:00 13.9 C 97 % 13.43 C

Legende:
   Min
   Max


Maximal/Minimal-Werte vom 17.10.2019 - 17.10.2019

Sensor Min Max Avg
Temp
(Aussen-T/F)
12.2 °C
17-10-2019  02:00:00
16.9 °C
17-10-2019  11:45:00
14.65 °C
Feuchte
(Aussen-T/F)
81 %
17-10-2019  11:15:00
97 %
17-10-2019  21:10:00
90.99 %
Taupunkt
(Aussen-T/F)
11.58 C
17-10-2019  02:00:00
14.8 C
17-10-2019  14:45:00
13.12 C

Die Daten stammen von einer Davis Vantage Pro 2 Wetter-Station und werden unter Linux mit der Software wview2wettercgi und aufbereitet. Alle Angaben erfolgen ohne Gewähr für ihre Vollständigkeit oder Richtigkeit.
Kontakt: Rainer Krienke krienke@uni-koblenz.de . Meine Webseiten an der Uni Koblenz oder privat.
Version: $Revision: 0.78 $